Time;durP1;ratioP1;P1;durP2;ratioP2;P2;SDS_P1;SDS_P2;PMS_P1;PMS_P2;Temp;Humidity;BMP_temperature;BMP_pressure;BME280_temperature;BME280_humidity;BME280_pressure;Samples;Min_cycle;Max_cycle;Signal;HPM_P1;HPM_P2
2022/04/09 00:02:13;;;;;;;13.32;2.20;;;3.60;99.90;;;;;;4994660;28;20030;-80
2022/04/09 00:04:40;;;;;;;8.77;1.65;;;3.70;99.90;;;;;;4980834;28;20037;-80
2022/04/09 00:07:05;;;;;;;9.70;2.17;;;3.70;99.90;;;;;;4994311;28;20434;-80
2022/04/09 00:09:31;;;;;;;10.82;2.60;;;3.80;99.90;;;;;;4977515;28;20104;-80
2022/04/09 00:11:56;;;;;;;9.23;2.38;;;3.70;99.90;;;;;;4993793;28;20061;-80
2022/04/09 00:14:23;;;;;;;8.02;1.85;;;3.80;99.90;;;;;;4969057;28;20513;-80
2022/04/09 00:16:49;;;;;;;10.43;2.92;;;3.80;99.90;;;;;;4995557;28;20042;-80
2022/04/09 00:19:14;;;;;;;21.88;6.07;;;3.80;99.90;;;;;;4995966;28;20022;-80
2022/04/09 00:21:40;;;;;;;10.48;3.22;;;3.90;99.90;;;;;;4977087;28;20061;-80
2022/04/09 00:24:06;;;;;;;9.90;2.97;;;3.70;99.90;;;;;;4982033;28;20393;-80
2022/04/09 00:26:31;;;;;;;14.57;3.38;;;3.80;99.90;;;;;;4982329;28;20094;-80
2022/04/09 00:28:57;;;;;;;10.65;2.90;;;3.90;99.90;;;;;;5003646;28;20044;-80
2022/04/09 00:31:22;;;;;;;11.30;2.05;;;3.70;99.90;;;;;;4997521;28;20030;-80
2022/04/09 00:33:48;;;;;;;13.05;4.00;;;3.70;99.90;;;;;;4994037;28;20037;-80
2022/04/09 00:36:13;;;;;;;14.77;3.78;;;3.70;99.90;;;;;;4979936;28;20022;-80
2022/04/09 00:38:39;;;;;;;10.68;2.95;;;3.60;99.90;;;;;;4977790;28;20030;-80
2022/04/09 00:41:04;;;;;;;17.80;2.53;;;3.90;99.90;;;;;;4994073;28;20033;-80
2022/04/09 00:43:30;;;;;;;7.88;2.58;;;4.00;99.90;;;;;;4982476;28;20053;-80
2022/04/09 00:45:55;;;;;;;13.07;3.67;;;4.10;99.90;;;;;;4979941;28;20025;-80
2022/04/09 00:48:21;;;;;;;7.88;2.50;;;4.00;99.90;;;;;;4994769;28;20533;-80
2022/04/09 00:50:47;;;;;;;14.98;5.07;;;4.00;99.90;;;;;;4978078;28;20054;-80
2022/04/09 00:53:15;;;;;;;12.25;3.63;;;4.10;99.90;;;;;;4977446;28;20481;-80
2022/04/09 00:58:25;;;;;;;12.93;2.80;;;3.90;99.90;;;;;;4997032;28;20301;-80
2022/04/09 01:00:50;;;;;;;13.60;2.67;;;3.80;99.90;;;;;;4980976;28;20042;-80
2022/04/09 01:03:20;;;;;;;15.52;3.53;;;3.70;99.90;;;;;;4983721;28;20033;-80
2022/04/09 01:05:48;;;;;;;10.73;2.47;;;3.80;99.90;;;;;;4996270;28;20398;-80
2022/04/09 01:08:13;;;;;;;25.13;3.78;;;3.90;99.90;;;;;;4978399;28;20029;-80
2022/04/09 01:10:39;;;;;;;9.95;2.35;;;3.90;99.90;;;;;;4997797;28;20056;-79
2022/04/09 01:13:04;;;;;;;11.10;2.70;;;4.00;99.90;;;;;;4975857;28;20026;-80
2022/04/09 01:15:30;;;;;;;13.80;2.33;;;3.90;99.90;;;;;;4976985;28;20071;-80
2022/04/09 01:17:55;;;;;;;9.18;2.53;;;3.90;99.90;;;;;;4977835;28;20041;-79
2022/04/09 01:20:22;;;;;;;14.20;2.80;;;3.90;99.90;;;;;;4995806;28;20038;-79
2022/04/09 01:22:48;;;;;;;11.20;3.08;;;3.90;99.90;;;;;;4976134;28;20037;-80
2022/04/09 01:25:14;;;;;;;16.65;3.00;;;3.70;99.90;;;;;;4982326;28;20498;-79
2022/04/09 01:27:39;;;;;;;8.95;2.95;;;3.80;99.90;;;;;;4972444;28;20577;-79
2022/04/09 01:30:05;;;;;;;10.82;2.92;;;3.80;99.90;;;;;;4978812;28;20281;-80
2022/04/09 01:32:31;;;;;;;5.15;1.58;;;3.80;99.90;;;;;;4985578;28;20554;-80
2022/04/09 01:35:02;;;;;;;14.10;2.53;;;3.80;99.90;;;;;;4978392;28;20291;-79
2022/04/09 01:37:28;;;;;;;12.38;2.38;;;3.80;99.90;;;;;;4977395;28;20030;-79
2022/04/09 01:39:53;;;;;;;4.93;0.82;;;3.90;99.90;;;;;;4999506;28;20041;-79
2022/04/09 01:42:21;;;;;;;9.70;2.60;;;3.80;99.90;;;;;;4982692;28;20026;-79
2022/04/09 01:44:47;;;;;;;9.48;2.42;;;3.70;99.90;;;;;;4980162;28;20095;-79
2022/04/09 01:47:13;;;;;;;4.93;1.52;;;3.70;99.90;;;;;;4978687;28;20030;-79
2022/04/09 01:49:38;;;;;;;8.90;2.60;;;3.70;99.90;;;;;;4981593;28;20059;-79
2022/04/09 01:52:04;;;;;;;8.57;2.80;;;3.60;99.90;;;;;;4975409;28;20084;-79
2022/04/09 01:54:29;;;;;;;11.55;2.65;;;3.70;99.90;;;;;;4980145;28;20079;-79
2022/04/09 01:56:55;;;;;;;13.75;2.45;;;3.80;99.90;;;;;;4995888;28;20046;-79
2022/04/09 01:59:21;;;;;;;11.90;2.45;;;3.80;99.90;;;;;;4979251;28;20041;-79
2022/04/09 02:01:48;;;;;;;9.77;2.50;;;3.90;99.90;;;;;;4986187;28;20030;-79
2022/04/09 02:04:15;;;;;;;10.20;2.00;;;3.80;99.90;;;;;;4975766;28;20052;-79
2022/04/09 02:06:42;;;;;;;9.85;2.85;;;3.80;99.90;;;;;;4978123;28;20037;-79
2022/04/09 02:09:11;;;;;;;12.68;3.03;;;3.90;99.90;;;;;;4983702;28;20037;-80
2022/04/09 02:11:39;;;;;;;9.30;2.53;;;3.90;99.90;;;;;;4977127;28;20030;-79
2022/04/09 02:14:04;;;;;;;8.93;2.58;;;3.80;99.90;;;;;;4993664;28;20049;-79
2022/04/09 02:16:30;;;;;;;11.75;3.30;;;3.80;99.90;;;;;;4997860;28;20037;-79
2022/04/09 02:18:56;;;;;;;7.45;2.90;;;3.80;99.90;;;;;;4972202;28;20032;-80
2022/04/09 02:21:21;;;;;;;9.45;2.13;;;3.80;99.90;;;;;;4992709;28;20124;-81
2022/04/09 02:23:47;;;;;;;11.32;3.20;;;3.90;99.90;;;;;;4978415;28;20156;-81
2022/04/09 02:26:13;;;;;;;15.57;3.70;;;3.90;99.90;;;;;;4978680;28;20034;-82
2022/04/09 02:28:38;;;;;;;10.60;1.90;;;3.90;99.90;;;;;;4995855;28;20022;-82
2022/04/09 02:31:04;;;;;;;14.40;2.70;;;3.90;99.90;;;;;;4994663;28;20508;-82
2022/04/09 02:33:29;;;;;;;14.55;2.65;;;3.90;99.90;;;;;;4971225;28;20034;-81
2022/04/09 02:35:55;;;;;;;8.50;2.05;;;3.90;99.90;;;;;;4974824;28;20034;-81
2022/04/09 02:38:20;;;;;;;5.28;1.27;;;4.00;99.90;;;;;;4980246;28;20030;-81
2022/04/09 02:40:46;;;;;;;15.05;2.85;;;4.00;99.90;;;;;;4976042;28;20025;-81
2022/04/09 02:43:11;;;;;;;12.35;2.53;;;3.90;99.90;;;;;;4978690;28;20120;-82
2022/04/09 02:45:37;;;;;;;7.60;2.10;;;4.00;99.90;;;;;;4982094;28;20026;-82
2022/04/09 02:48:03;;;;;;;14.23;3.20;;;3.90;99.90;;;;;;4984632;28;20481;-82
2022/04/09 02:50:29;;;;;;;12.45;3.00;;;4.00;99.90;;;;;;4995015;28;20045;-81
2022/04/09 02:52:54;;;;;;;4.95;1.52;;;4.00;99.90;;;;;;4981315;28;20088;-81
2022/04/09 02:55:20;;;;;;;10.50;2.58;;;4.00;99.90;;;;;;5000550;28;20046;-81
2022/04/09 02:57:46;;;;;;;5.53;1.40;;;4.00;99.90;;;;;;4984006;28;20110;-82
2022/04/09 03:00:12;;;;;;;11.50;2.35;;;4.00;99.90;;;;;;4977854;28;20032;-81
2022/04/09 03:02:38;;;;;;;9.02;1.90;;;4.00;99.90;;;;;;4976143;28;20144;-81
2022/04/09 03:05:04;;;;;;;4.88;1.45;;;4.00;99.90;;;;;;5001060;28;20397;-81
2022/04/09 03:07:30;;;;;;;7.85;1.67;;;4.00;99.90;;;;;;4986597;28;20387;-81
2022/04/09 03:09:56;;;;;;;5.90;2.08;;;4.00;99.90;;;;;;4986283;28;20112;-81
2022/04/09 03:12:22;;;;;;;9.45;1.85;;;4.10;99.90;;;;;;4964328;28;20060;-82
2022/04/09 03:14:47;;;;;;;4.10;1.67;;;4.10;99.90;;;;;;4995804;28;20076;-82
2022/04/09 03:17:13;;;;;;;9.55;1.67;;;4.10;99.90;;;;;;5005954;28;20046;-82
2022/04/09 03:19:39;;;;;;;10.05;1.33;;;4.00;99.90;;;;;;5001774;28;20624;-82
2022/04/09 03:22:04;;;;;;;9.50;2.33;;;4.00;99.90;;;;;;4988213;28;20053;-82
2022/04/09 03:24:30;;;;;;;8.43;1.75;;;4.00;99.90;;;;;;4984202;28;20022;-83
2022/04/09 03:26:55;;;;;;;7.22;2.05;;;4.00;99.90;;;;;;4982120;28;20103;-83
2022/04/09 03:29:21;;;;;;;13.50;2.15;;;4.00;99.90;;;;;;4995476;28;20041;-83
2022/04/09 03:31:47;;;;;;;9.77;1.90;;;4.00;99.90;;;;;;4987505;28;20034;-83
2022/04/09 03:34:12;;;;;;;3.33;1.50;;;4.00;99.90;;;;;;4981417;28;20033;-83
2022/04/09 03:36:38;;;;;;;17.63;2.13;;;4.00;99.90;;;;;;4998487;28;20061;-83
2022/04/09 03:39:04;;;;;;;12.93;2.67;;;3.90;99.90;;;;;;5003431;28;20018;-83
2022/04/09 03:41:30;;;;;;;4.95;1.15;;;3.90;99.90;;;;;;4982378;28;20533;-83
2022/04/09 03:43:55;;;;;;;17.00;2.45;;;3.90;99.90;;;;;;4958327;28;20038;-82
2022/04/09 03:46:21;;;;;;;8.98;2.05;;;3.90;99.90;;;;;;4985891;28;20041;-82
2022/04/09 03:48:47;;;;;;;11.32;1.27;;;3.90;99.90;;;;;;4998903;28;20394;-83
2022/04/09 03:51:12;;;;;;;12.80;2.58;;;3.90;99.90;;;;;;4995981;28;20054;-83
2022/04/09 03:53:38;;;;;;;6.03;1.42;;;3.90;99.90;;;;;;4986978;28;20021;-83
2022/04/09 03:56:04;;;;;;;20.15;2.38;;;3.80;99.90;;;;;;4995957;28;20026;-82
2022/04/09 03:58:30;;;;;;;8.02;1.05;;;3.80;99.90;;;;;;4986164;28;20025;-83
2022/04/09 04:00:55;;;;;;;10.70;1.60;;;3.80;99.90;;;;;;5001490;28;20033;-82
2022/04/09 04:03:22;;;;;;;5.78;1.60;;;3.80;99.90;;;;;;4986480;28;20080;-82
2022/04/09 04:05:47;;;;;;;7.55;2.20;;;3.80;99.90;;;;;;5000706;28;20354;-83
2022/04/09 04:08:13;;;;;;;3.05;1.30;;;3.80;99.90;;;;;;4983981;28;20037;-83
2022/04/09 04:10:39;;;;;;;14.02;2.88;;;3.80;99.90;;;;;;5002943;28;20045;-83
2022/04/09 04:13:06;;;;;;;10.98;1.25;;;3.70;99.90;;;;;;4997856;28;20038;-82
2022/04/09 04:15:34;;;;;;;12.60;2.88;;;3.60;99.90;;;;;;4982490;28;20066;-82
2022/04/09 04:18:00;;;;;;;10.00;2.17;;;3.60;99.90;;;;;;5020172;28;20038;-82
2022/04/09 04:20:25;;;;;;;10.80;1.52;;;3.50;99.90;;;;;;4983128;28;20366;-82
2022/04/09 04:22:51;;;;;;;7.82;1.92;;;3.50;99.90;;;;;;4984588;28;20077;-82
2022/04/09 04:25:17;;;;;;;13.63;2.85;;;3.50;99.90;;;;;;4986179;28;20132;-82
2022/04/09 04:27:43;;;;;;;15.63;2.17;;;3.50;99.90;;;;;;4982936;28;20037;-82
2022/04/09 04:30:09;;;;;;;10.70;1.67;;;3.60;99.90;;;;;;4983628;28;20045;-82
2022/04/09 04:32:35;;;;;;;5.22;1.77;;;3.50;99.90;;;;;;4986230;28;20026;-82
2022/04/09 04:35:00;;;;;;;5.95;1.60;;;3.50;99.90;;;;;;4984945;28;20058;-82
2022/04/09 04:37:36;;;;;;;13.95;1.95;;;3.50;99.90;;;;;;4986303;28;20056;-82
2022/04/09 04:40:02;;;;;;;12.63;2.22;;;3.40;99.90;;;;;;4985654;28;20033;-82
2022/04/09 04:42:27;;;;;;;6.22;2.38;;;3.40;99.90;;;;;;4986113;28;20032;-82
2022/04/09 04:44:53;;;;;;;4.13;1.40;;;3.40;99.90;;;;;;5003834;28;20029;-82
2022/04/09 04:47:18;;;;;;;10.23;2.53;;;3.40;99.90;;;;;;4983028;28;20053;-82
2022/04/09 04:49:44;;;;;;;10.00;2.70;;;3.30;99.90;;;;;;4998247;28;20038;-83
2022/04/09 04:52:09;;;;;;;7.03;2.53;;;3.40;99.90;;;;;;4998913;28;20486;-82
2022/04/09 04:54:36;;;;;;;7.43;1.60;;;3.50;99.90;;;;;;5001587;28;20048;-82
2022/04/09 04:57:02;;;;;;;9.48;2.20;;;3.40;99.90;;;;;;4995609;28;20033;-82
2022/04/09 04:59:27;;;;;;;9.57;1.33;;;3.40;99.90;;;;;;4988414;28;20394;-82
2022/04/09 05:01:53;;;;;;;11.68;2.35;;;3.40;99.90;;;;;;5000370;28;20034;-82
2022/04/09 05:04:18;;;;;;;12.05;2.10;;;3.50;99.90;;;;;;4982878;28;20527;-82
2022/04/09 05:06:45;;;;;;;4.95;1.50;;;3.50;99.90;;;;;;4986940;28;20715;-82
2022/04/09 05:09:13;;;;;;;13.48;2.33;;;3.50;99.90;;;;;;4986511;28;20064;-82
2022/04/09 05:11:39;;;;;;;5.85;1.63;;;3.60;99.90;;;;;;4979099;28;20026;-82
2022/04/09 05:14:04;;;;;;;16.05;2.13;;;3.60;99.90;;;;;;4984392;28;20037;-83
2022/04/09 05:16:30;;;;;;;13.15;3.38;;;3.60;99.90;;;;;;4983180;28;20061;-82
2022/04/09 05:18:55;;;;;;;10.23;2.15;;;3.70;99.90;;;;;;4980130;28;20030;-82
2022/04/09 05:21:21;;;;;;;7.25;1.42;;;3.70;99.90;;;;;;4990512;28;20026;-80
2022/04/09 05:23:46;;;;;;;4.43;1.40;;;3.70;99.90;;;;;;5000162;28;20032;-80
2022/04/09 05:26:12;;;;;;;8.23;1.73;;;3.70;99.90;;;;;;4988804;28;20029;-81
2022/04/09 05:28:37;;;;;;;9.80;1.92;;;3.80;99.90;;;;;;4984332;28;20030;-81
2022/04/09 05:31:04;;;;;;;7.55;2.08;;;3.80;99.90;;;;;;5004876;28;20033;-81
2022/04/09 05:33:30;;;;;;;11.55;2.42;;;3.80;99.90;;;;;;5002894;28;20505;-81
2022/04/09 05:35:56;;;;;;;13.27;2.78;;;3.90;99.90;;;;;;4998560;28;20033;-82
2022/04/09 05:38:22;;;;;;;7.80;2.10;;;4.00;99.90;;;;;;5002840;28;20076;-82
2022/04/09 05:40:48;;;;;;;18.15;2.83;;;4.00;99.90;;;;;;4987873;28;20042;-82
2022/04/09 05:43:14;;;;;;;17.17;2.65;;;4.00;99.90;;;;;;4986296;28;20504;-81
2022/04/09 05:45:39;;;;;;;7.30;1.73;;;4.00;99.90;;;;;;4984903;28;20030;-81
2022/04/09 05:48:05;;;;;;;9.75;1.85;;;4.00;99.90;;;;;;5007162;28;20034;-82
2022/04/09 05:50:31;;;;;;;8.70;1.40;;;4.00;99.90;;;;;;5000998;28;20033;-81
2022/04/09 05:52:56;;;;;;;7.78;1.73;;;4.10;99.90;;;;;;4988103;28;20040;-82
2022/04/09 05:55:22;;;;;;;6.70;2.10;;;4.10;99.90;;;;;;4988034;28;20041;-82
2022/04/09 05:57:47;;;;;;;10.57;2.22;;;4.10;99.90;;;;;;4988783;28;20044;-82
2022/04/09 06:00:13;;;;;;;10.52;2.30;;;4.20;99.90;;;;;;5001382;28;20117;-82
2022/04/09 06:02:39;;;;;;;9.43;2.47;;;4.30;99.90;;;;;;5004637;28;20060;-82
2022/04/09 06:05:06;;;;;;;6.40;2.17;;;4.30;99.90;;;;;;5005960;28;20037;-82
2022/04/09 06:07:32;;;;;;;6.00;1.77;;;4.30;99.90;;;;;;4989811;28;20036;-82
2022/04/09 06:09:58;;;;;;;8.20;2.42;;;4.40;99.90;;;;;;5006759;28;20076;-82
2022/04/09 06:12:23;;;;;;;7.57;1.67;;;4.40;99.90;;;;;;4991228;28;20037;-81
2022/04/09 06:14:49;;;;;;;10.18;2.35;;;4.40;99.90;;;;;;5005908;28;20030;-81
2022/04/09 06:17:14;;;;;;;8.05;2.05;;;4.50;99.90;;;;;;4982598;28;20029;-81
2022/04/09 06:19:40;;;;;;;16.27;3.17;;;4.50;99.90;;;;;;4992614;28;20037;-81
2022/04/09 06:22:05;;;;;;;14.30;3.20;;;4.60;99.90;;;;;;4990406;28;20064;-81
2022/04/09 06:24:31;;;;;;;7.53;1.90;;;4.60;99.90;;;;;;5008588;28;20087;-81
2022/04/09 06:26:57;;;;;;;11.40;2.38;;;4.70;99.90;;;;;;5009969;28;20034;-81
2022/04/09 06:29:22;;;;;;;4.25;1.38;;;4.70;99.90;;;;;;5006693;28;20038;-81
2022/04/09 06:31:48;;;;;;;9.65;3.17;;;4.70;99.90;;;;;;4994038;28;20034;-81
2022/04/09 06:34:14;;;;;;;6.85;1.70;;;4.70;99.90;;;;;;5003527;28;20040;-81
2022/04/09 06:36:40;;;;;;;13.82;2.47;;;4.70;99.90;;;;;;4989632;28;20021;-80
2022/04/09 06:39:05;;;;;;;16.63;3.67;;;4.70;99.90;;;;;;4990930;28;20159;-81
2022/04/09 06:41:33;;;;;;;17.08;3.00;;;4.80;99.90;;;;;;5001419;28;20041;-81
2022/04/09 06:43:58;;;;;;;13.52;2.35;;;4.80;99.90;;;;;;5004833;28;20029;-82
2022/04/09 06:46:24;;;;;;;15.70;3.20;;;4.90;99.90;;;;;;4993903;28;20483;-82
2022/04/09 06:48:49;;;;;;;10.07;2.95;;;5.00;99.90;;;;;;5001180;28;20030;-82
2022/04/09 06:51:15;;;;;;;12.13;2.13;;;5.00;99.90;;;;;;4983444;28;20032;-82
2022/04/09 06:53:40;;;;;;;10.00;2.55;;;5.10;99.90;;;;;;4986177;28;20030;-82
2022/04/09 06:56:06;;;;;;;8.95;2.65;;;5.20;99.90;;;;;;5005383;28;20034;-81
2022/04/09 06:58:33;;;;;;;8.07;2.28;;;5.30;99.90;;;;;;4979437;28;20057;-82
2022/04/09 07:00:59;;;;;;;10.27;1.95;;;5.50;99.90;;;;;;5003632;28;20088;-82
2022/04/09 07:03:25;;;;;;;9.77;3.13;;;5.70;99.90;;;;;;4999466;28;20030;-82
2022/04/09 07:05:50;;;;;;;9.70;2.25;;;5.80;99.90;;;;;;4995863;28;20545;-82
2022/04/09 07:08:16;;;;;;;11.75;2.17;;;5.80;99.90;;;;;;4979934;28;20014;-83
2022/04/09 07:10:41;;;;;;;14.07;2.22;;;5.70;99.90;;;;;;4997174;28;20037;-83
2022/04/09 07:13:07;;;;;;;10.52;1.90;;;5.80;99.90;;;;;;4982068;28;20034;-83
2022/04/09 07:15:34;;;;;;;5.45;1.23;;;5.70;99.90;;;;;;4987474;28;20145;-83
2022/04/09 07:17:59;;;;;;;13.68;3.10;;;5.90;99.90;;;;;;4975831;28;20034;-82
2022/04/09 07:20:25;;;;;;;15.07;3.28;;;5.90;99.90;;;;;;4975218;28;20057;-82
2022/04/09 07:22:50;;;;;;;12.65;2.72;;;6.00;99.90;;;;;;4975991;28;20026;-81
2022/04/09 07:25:19;;;;;;;15.40;3.45;;;6.00;99.90;;;;;;4980538;28;20721;-81
2022/04/09 07:27:45;;;;;;;13.13;2.05;;;6.10;99.90;;;;;;4980455;28;20046;-81
2022/04/09 07:30:21;;;;;;;12.20;2.83;;;6.20;99.90;;;;;;4992764;28;20045;-81
2022/04/09 07:32:47;;;;;;;11.82;4.03;;;6.30;99.90;;;;;;4979361;28;20042;-82
2022/04/09 07:35:12;;;;;;;24.67;3.33;;;6.50;99.90;;;;;;4997272;28;20040;-82
2022/04/09 07:37:46;;;;;;;15.32;2.15;;;6.60;99.90;;;;;;4996891;28;20125;-82
2022/04/09 07:40:12;;;;;;;11.55;2.42;;;6.50;99.90;;;;;;4981504;28;20394;-81
2022/04/09 07:42:39;;;;;;;21.25;3.33;;;6.40;99.90;;;;;;4979174;28;20117;-81
2022/04/09 07:45:05;;;;;;;17.73;4.28;;;6.40;99.90;;;;;;4980108;28;20493;-82
2022/04/09 07:47:30;;;;;;;16.05;2.60;;;6.40;99.90;;;;;;4975818;28;20125;-82
2022/04/09 07:49:56;;;;;;;12.80;3.13;;;6.40;99.90;;;;;;4993725;28;20034;-82
2022/04/09 07:52:22;;;;;;;7.10;1.83;;;6.50;99.90;;;;;;4979491;28;20513;-82
2022/04/09 07:54:47;;;;;;;9.90;2.47;;;6.60;99.90;;;;;;4969841;28;20061;-83
2022/04/09 07:57:13;;;;;;;14.45;2.80;;;6.60;99.90;;;;;;4976288;28;20034;-84
2022/04/09 07:59:38;;;;;;;7.25;2.70;;;6.60;99.90;;;;;;4979854;28;20065;-84
2022/04/09 08:02:04;;;;;;;19.80;3.28;;;6.50;99.90;;;;;;4983578;28;20038;-84
2022/04/09 08:04:29;;;;;;;9.80;2.47;;;6.40;99.90;;;;;;4993723;28;20146;-84
2022/04/09 08:06:55;;;;;;;12.40;2.72;;;6.40;99.90;;;;;;4991519;28;20030;-85
2022/04/09 08:09:20;;;;;;;8.40;2.08;;;6.20;99.90;;;;;;4979766;28;20036;-84
2022/04/09 08:11:46;;;;;;;10.98;2.70;;;6.20;99.90;;;;;;4983453;28;20189;-84
2022/04/09 08:14:12;;;;;;;6.18;1.58;;;6.20;99.90;;;;;;5001761;28;20560;-84
2022/04/09 08:16:38;;;;;;;5.03;2.08;;;6.30;99.90;;;;;;4983954;28;20033;-84
2022/04/09 08:19:04;;;;;;;13.23;2.80;;;6.40;99.90;;;;;;4979682;28;20022;-84
2022/04/09 08:21:29;;;;;;;6.45;1.50;;;6.40;99.90;;;;;;4981529;28;20637;-85
2022/04/09 08:23:55;;;;;;;10.57;2.75;;;6.50;99.90;;;;;;4996325;28;20037;-85
2022/04/09 08:26:20;;;;;;;11.88;2.10;;;6.70;99.90;;;;;;5000284;28;20021;-85
2022/04/09 08:28:46;;;;;;;12.57;2.88;;;6.90;99.90;;;;;;4977382;28;20132;-85
2022/04/09 08:31:11;;;;;;;8.30;1.92;;;7.00;99.90;;;;;;4995184;28;20029;-85
2022/04/09 08:33:40;;;;;;;8.13;2.15;;;7.10;99.90;;;;;;4997162;28;20062;-85
2022/04/09 08:36:06;;;;;;;15.32;3.90;;;7.30;99.90;;;;;;4976913;28;20104;-85
2022/04/09 08:38:31;;;;;;;10.07;2.28;;;7.40;99.90;;;;;;4980688;28;20037;-85
2022/04/09 08:40:57;;;;;;;15.43;3.03;;;7.50;99.90;;;;;;4996107;28;20041;-84
2022/04/09 08:43:22;;;;;;;10.35;2.83;;;7.60;99.90;;;;;;4983791;28;20025;-84
2022/04/09 08:45:48;;;;;;;10.20;2.38;;;7.80;99.90;;;;;;4982764;28;20045;-84
2022/04/09 08:48:14;;;;;;;15.48;2.53;;;7.90;99.90;;;;;;4981242;28;20489;-84
2022/04/09 08:50:41;;;;;;;11.80;2.85;;;7.90;99.90;;;;;;4995398;28;20459;-84
2022/04/09 08:53:07;;;;;;;9.30;2.42;;;8.00;99.90;;;;;;4977041;28;20490;-84
2022/04/09 08:55:35;;;;;;;7.13;2.65;;;8.10;99.90;;;;;;4983370;28;20552;-84
2022/04/09 08:58:01;;;;;;;11.50;2.60;;;8.20;99.90;;;;;;4980336;28;20030;-84
2022/04/09 09:00:27;;;;;;;7.78;2.10;;;8.40;99.90;;;;;;4976864;28;20061;-84
2022/04/09 09:02:54;;;;;;;11.93;2.03;;;8.50;99.90;;;;;;4977978;28;20148;-84
2022/04/09 09:05:38;;;;;;;6.47;1.77;;;8.50;99.90;;;;;;4971953;28;20030;-83
2022/04/09 09:08:06;;;;;;;10.00;2.53;;;8.60;99.90;;;;;;4981994;28;20042;-84
2022/04/09 09:10:32;;;;;;;7.63;1.50;;;8.80;99.90;;;;;;4972524;28;20094;-83
2022/04/09 09:13:06;;;;;;;7.65;1.67;;;8.70;99.90;;;;;;4970394;28;20033;-84
2022/04/09 09:15:48;;;;;;;4.97;1.45;;;8.60;99.90;;;;;;4946662;28;20093;-84
2022/04/09 09:18:31;;;;;;;1.55;0.93;;;8.60;99.90;;;;;;4985511;28;20121;-84
2022/04/09 09:20:58;;;;;;;8.68;1.70;;;8.90;99.90;;;;;;4936788;28;20124;-85
2022/04/09 09:23:34;;;;;;;3.40;1.08;;;9.10;99.90;;;;;;4947904;28;20045;-84
2022/04/09 09:26:00;;;;;;;7.32;1.40;;;9.30;99.90;;;;;;4994698;28;20037;-84
2022/04/09 09:28:32;;;;;;;6.18;1.42;;;9.50;99.90;;;;;;4978011;28;20514;-84
2022/04/09 09:30:58;;;;;;;4.40;1.13;;;9.60;99.90;;;;;;4975404;28;20041;-84
2022/04/09 09:33:25;;;;;;;5.63;1.25;;;9.70;99.90;;;;;;4983569;28;20033;-84
2022/04/09 09:35:54;;;;;;;8.90;1.38;;;9.70;99.90;;;;;;4981610;28;20554;-85
2022/04/09 09:38:20;;;;;;;2.97;1.00;;;10.00;99.90;;;;;;4984137;28;20133;-85
2022/04/09 09:40:47;;;;;;;4.97;0.77;;;10.10;99.90;;;;;;4997709;28;20137;-84
2022/04/09 09:43:13;;;;;;;2.75;1.20;;;10.20;99.90;;;;;;4969050;28;20038;-84
2022/04/09 09:45:40;;;;;;;6.05;1.48;;;10.10;99.90;;;;;;4974112;28;20038;-85
2022/04/09 09:48:17;;;;;;;4.30;1.38;;;10.10;99.90;;;;;;4976564;28;20531;-84
2022/04/09 09:50:46;;;;;;;6.75;1.67;;;10.00;99.90;;;;;;4996544;28;20038;-84
2022/04/09 09:53:14;;;;;;;3.88;1.48;;;10.00;99.90;;;;;;4971209;28;20091;-85
2022/04/09 09:55:43;;;;;;;3.13;1.00;;;10.00;99.90;;;;;;4962145;28;20065;-85
2022/04/09 09:58:18;;;;;;;2.35;1.00;;;9.80;99.90;;;;;;4977392;28;20056;-84
2022/04/09 10:00:44;;;;;;;3.97;0.93;;;9.80;99.90;;;;;;4979125;28;20482;-85
2022/04/09 10:03:13;;;;;;;2.20;0.50;;;9.80;99.90;;;;;;4978587;28;20080;-84
2022/04/09 10:05:39;;;;;;;2.88;1.13;;;9.90;99.90;;;;;;4981188;28;20034;-84
2022/04/09 10:08:06;;;;;;;2.25;0.80;;;10.00;99.90;;;;;;4976011;28;20580;-84
2022/04/09 10:10:37;;;;;;;3.53;1.13;;;10.10;99.90;;;;;;4985767;28;20493;-84
2022/04/09 10:13:07;;;;;;;4.72;1.23;;;10.00;99.90;;;;;;4985791;28;20030;-84
2022/04/09 10:15:32;;;;;;;0.65;0.57;;;9.90;99.90;;;;;;4974160;28;20574;-84
2022/04/09 10:17:59;;;;;;;2.60;0.60;;;9.70;99.90;;;;;;4991828;28;20104;-84
2022/04/09 10:20:25;;;;;;;8.18;3.20;;;9.90;99.90;;;;;;4977184;28;20038;-85
2022/04/09 10:22:53;;;;;;;2.08;1.05;;;9.90;99.90;;;;;;4990005;28;20037;-85
2022/04/09 10:25:19;;;;;;;3.50;1.08;;;10.10;99.90;;;;;;4992904;28;20140;-85
2022/04/09 10:27:49;;;;;;;6.22;1.70;;;10.00;99.90;;;;;;4974230;28;20593;-85
2022/04/09 10:30:19;;;;;;;4.13;1.50;;;10.10;99.90;;;;;;4968444;28;20034;-85
2022/04/09 10:32:47;;;;;;;6.05;2.22;;;10.10;99.90;;;;;;4990792;28;20045;-84
2022/04/09 10:35:24;;;;;;;4.03;1.58;;;10.20;99.90;;;;;;4973741;28;20037;-85
2022/04/09 10:38:09;;;;;;;3.00;1.48;;;10.30;99.90;;;;;;5010060;28;20375;-84
2022/04/09 10:40:35;;;;;;;4.10;1.85;;;10.30;99.90;;;;;;4993858;28;20568;-84
2022/04/09 10:43:01;;;;;;;5.75;1.35;;;10.50;99.90;;;;;;4981830;28;20506;-85
2022/04/09 10:45:35;;;;;;;9.23;1.88;;;10.50;99.90;;;;;;4969727;28;20505;-85
2022/04/09 10:48:10;;;;;;;8.98;2.10;;;10.50;99.90;;;;;;4977241;28;20026;-85
2022/04/09 10:51:02;;;;;;;5.47;1.58;;;10.60;99.90;;;;;;4979719;28;20034;-85
2022/04/09 10:53:29;;;;;;;4.13;1.60;;;11.10;99.90;;;;;;4997077;28;20044;-85
2022/04/09 10:56:15;;;;;;;4.78;1.27;;;11.00;99.90;;;;;;4998269;28;20125;-84
2022/04/09 10:59:13;;;;;;;2.10;1.10;;;11.40;99.90;;;;;;4992577;28;20033;-84
2022/04/09 11:01:47;;;;;;;5.53;1.20;;;12.10;99.90;;;;;;4957056;28;20035;-85
2022/04/09 11:04:28;;;;;;;3.97;1.30;;;12.00;99.90;;;;;;5003494;28;20045;-85
2022/04/09 11:07:09;;;;;;;5.45;1.13;;;12.00;99.90;;;;;;4991986;28;20022;-84
2022/04/09 11:09:56;;;;;;;4.90;1.15;;;12.30;99.90;;;;;;4981884;28;20038;-85
2022/04/09 11:12:24;;;;;;;3.15;0.60;;;12.20;99.90;;;;;;4982921;28;20385;-85
2022/04/09 11:15:00;;;;;;;0.52;0.38;;;12.10;99.90;;;;;;4990534;28;20147;-85
2022/04/09 11:17:29;;;;;;;;;;;11.60;99.90;;;;;;4960843;28;20034;-85
2022/04/09 11:19:56;;;;;;;0.98;0.47;;;11.50;99.90;;;;;;4978942;28;19913;-84
2022/04/09 11:22:21;;;;;;;3.70;0.50;;;11.60;99.90;;;;;;4990543;28;20019;-85
2022/04/09 11:24:47;;;;;;;1.55;0.40;;;11.70;99.90;;;;;;4992624;28;20041;-85
2022/04/09 11:27:13;;;;;;;1.20;0.30;;;11.50;99.90;;;;;;4981797;28;20036;-85
2022/04/09 11:29:40;;;;;;;4.63;0.80;;;11.40;99.90;;;;;;4975441;28;20117;-86
2022/04/09 11:32:06;;;;;;;1.52;0.45;;;11.00;99.90;;;;;;4998335;28;20032;-86
2022/04/09 11:34:55;;;;;;;1.67;0.70;;;10.80;99.90;;;;;;4982025;28;20025;-86
2022/04/09 11:37:23;;;;;;;4.45;0.68;;;10.10;99.90;;;;;;4995581;28;20037;-86
2022/04/09 11:39:49;;;;;;;3.10;0.65;;;9.50;99.90;;;;;;4978508;28;20708;-87
2022/04/09 11:42:16;;;;;;;2.80;1.30;;;9.20;99.90;;;;;;4984957;28;20562;-86
2022/04/09 11:44:42;;;;;;;4.55;0.80;;;8.90;99.90;;;;;;4978292;28;20033;-85
2022/04/09 11:47:11;;;;;;;3.83;1.45;;;8.80;99.90;;;;;;4984262;28;20026;-85
2022/04/09 11:49:37;;;;;;;2.75;0.65;;;8.70;99.90;;;;;;5001026;28;20494;-86
2022/04/09 11:52:04;;;;;;;1.52;0.55;;;8.90;99.90;;;;;;4982091;28;20040;-86
2022/04/09 11:54:33;;;;;;;3.40;1.00;;;9.20;99.90;;;;;;4982925;28;20113;-85
2022/04/09 11:57:02;;;;;;;3.35;0.80;;;9.40;99.90;;;;;;4950087;28;20022;-86
2022/04/09 11:59:29;;;;;;;4.32;0.80;;;9.40;99.90;;;;;;4983961;28;20405;-85
2022/04/09 12:01:55;;;;;;;3.20;0.98;;;9.50;99.90;;;;;;4985607;28;20056;-85
2022/04/09 12:04:20;;;;;;;4.15;1.15;;;9.80;99.90;;;;;;4993853;28;20066;-85
2022/04/09 12:06:46;;;;;;;2.53;1.30;;;9.80;99.90;;;;;;4980800;28;20030;-86
2022/04/09 12:09:13;;;;;;;5.90;1.42;;;10.00;99.90;;;;;;4980764;28;20121;-85
2022/04/09 12:11:52;;;;;;;5.60;1.20;;;10.10;99.90;;;;;;4985985;28;20036;-85
2022/04/09 12:14:20;;;;;;;3.20;1.10;;;10.10;99.90;;;;;;4976720;28;20268;-86
2022/04/09 12:16:48;;;;;;;2.28;1.17;;;9.90;99.90;;;;;;4980119;28;20421;-85
2022/04/09 12:19:14;;;;;;;3.03;1.30;;;9.70;99.90;;;;;;4985016;28;20085;-85
2022/04/09 12:21:41;;;;;;;5.60;1.48;;;9.60;99.90;;;;;;4998581;28;20631;-85
2022/04/09 12:24:12;;;;;;;3.45;1.27;;;9.60;99.90;;;;;;5001628;28;20123;-86
2022/04/09 12:26:43;;;;;;;3.47;1.10;;;9.60;99.90;;;;;;4998006;28;20478;-85
2022/04/09 12:29:13;;;;;;;9.80;1.20;;;9.80;99.90;;;;;;4980531;28;20026;-86
2022/04/09 12:31:42;;;;;;;2.10;1.10;;;9.80;99.90;;;;;;4977270;28;20042;-87
2022/04/09 12:34:08;;;;;;;1.42;0.82;;;10.00;99.90;;;;;;4983532;28;20033;-87
2022/04/09 12:36:33;;;;;;;3.17;1.00;;;9.70;99.90;;;;;;4970185;28;20383;-86
2022/04/09 12:39:00;;;;;;;2.38;0.88;;;9.80;99.90;;;;;;4983201;28;20026;-86
2022/04/09 12:41:26;;;;;;;3.13;0.95;;;9.90;99.90;;;;;;4982112;28;20033;-86
2022/04/09 12:43:52;;;;;;;2.25;0.80;;;10.10;99.90;;;;;;4977150;28;20045;-86
2022/04/09 12:46:18;;;;;;;3.05;0.70;;;9.90;99.90;;;;;;4978706;28;20073;-86
2022/04/09 12:48:52;;;;;;;5.45;0.93;;;10.10;99.90;;;;;;4983763;28;20026;-86
2022/04/09 12:51:19;;;;;;;3.00;0.73;;;10.30;99.90;;;;;;4985778;28;20506;-86
2022/04/09 12:53:46;;;;;;;6.32;1.02;;;10.60;99.90;;;;;;4975075;28;20030;-86